Hovedside
METAR-TAF:

METAR-TAF

Lufthavner :

Nouméa / La Tontouta, Ny-Caledonia

breddegrad: 22-01S, lengdegrad: 166-13E, høyde over havet: 16 m

Gjeldene værobservasjon

Denne rapporten ble laget for 27 minutter siden, klokken 15:00 UTC
Vind 3 kt fra Sør-sørøst
Temperatur 18°C
Luftfuktighet 68%
Trykk 1014 hPa
Sikt 10 km eller mer
ingen skyer under 1500 m og ingen bygeskyer

METAR: NWWW 141500Z AUTO 16003KT CAVOK 18/12 Q1014 NOSIG

Tid: 02:27 (15:27 UTC)

Varsel

Denne rapporten ble laget for 4 timer og 27 minutter siden, klokken 11:00 UTC
Varsel gyldig fra 14. klokken 12 UTC til 15. klokken 12 UTC
Vind 2 kt fra skiftende retning
Sikt 10 km eller mer
ingen skyer under 1500 m og ingen bygeskyer
Blir
fra 14. klokken 22 UTC til 14. klokken 24 UTC
Vind 14 kt fra Sør-sørøst
Blir
fra 15. klokken 06 UTC til 15. klokken 08 UTC
Vind 2 kt fra skiftende retning

TAF: NWWW 141100Z 1412/1512 VRB02KT CAVOK BECMG 1422/1424 15014KT BECMG 1506/1508 VRB02KT

Værobservasjoner og værvarsel for over 4000 flyplasser (METAR- og TAF-rapporter).

Tilgjengelige stasjoner er representert av de røde og gule prikkene på kartet.

Hold musepekeren over prikken for å se navnet på stasjonen.

Klikk så for å se værobservasjoner og -varsler.

For å forandre kartet kan du klikke på den grønne knappen med svart kryss for å zoome inn, på den grønne knappen med strek for å zoome ut, eller på de grønne pilene for å se tilstøtende kart.


METAR-TAF: